Time;durP1;ratioP1;P1;durP2;ratioP2;P2;SDS_P1;SDS_P2;PMS_P1;PMS_P2;Temp;Humidity;BMP_temperature;BMP_pressure;BME280_temperature;BME280_humidity;BME280_pressure;Samples;Min_cycle;Max_cycle;Signal;HPM_P1;HPM_P2
2022/12/03 00:02:16;;;;;;;71.60;37.40;;;;;;;-0.84;100.00;99770.29;105889;1283;58980;-74
2022/12/03 00:04:42;;;;;;;75.30;38.00;;;;;;;-0.83;100.00;99762.95;105873;1290;59014;-73
2022/12/03 00:07:08;;;;;;;67.30;35.40;;;;;;;-0.83;100.00;99762.95;105877;1298;59027;-73
2022/12/03 00:09:34;;;;;;;69.10;37.20;;;;;;;-0.82;100.00;99761.72;105891;1284;75580;-73
2022/12/03 00:12:00;;;;;;;71.70;39.80;;;;;;;-0.80;100.00;99761.00;105746;1299;59008;-73
2022/12/03 00:14:26;;;;;;;79.00;40.90;;;;;;;-0.81;100.00;99759.09;105882;1283;61156;-73
2022/12/03 00:16:52;;;;;;;77.90;40.40;;;;;;;-0.79;100.00;99764.66;105847;1290;58952;-73
2022/12/03 00:19:18;;;;;;;72.70;40.70;;;;;;;-0.80;100.00;99765.54;105848;1291;59030;-73
2022/12/03 00:21:44;;;;;;;69.90;39.40;;;;;;;-0.80;100.00;99761.52;105863;1290;58940;-73
2022/12/03 00:24:09;;;;;;;70.80;39.00;;;;;;;-0.80;100.00;99759.95;105834;1289;58897;-73
2022/12/03 00:26:36;;;;;;;79.00;40.40;;;;;;;-0.80;100.00;99760.48;105863;1290;59060;-73
2022/12/03 00:29:02;;;;;;;71.50;38.80;;;;;;;-0.79;100.00;99759.08;105582;1284;59034;-73
2022/12/03 00:31:28;;;;;;;67.00;36.00;;;;;;;-0.79;100.00;99753.33;105648;1299;58930;-74
2022/12/03 00:33:56;;;;;;;73.70;38.50;;;;;;;-0.82;100.00;99744.45;105890;1291;59475;-74
2022/12/03 00:36:22;;;;;;;72.20;36.50;;;;;;;-0.85;100.00;99744.83;105847;1290;58883;-73
2022/12/03 00:38:48;;;;;;;67.70;36.40;;;;;;;-0.87;100.00;99741.34;105871;1291;59016;-73
2022/12/03 00:41:14;;;;;;;65.30;35.80;;;;;;;-0.89;100.00;99735.95;105843;1290;58954;-73
2022/12/03 00:43:39;;;;;;;73.30;37.40;;;;;;;-0.90;100.00;99741.37;105731;1294;59003;-74
2022/12/03 00:46:06;;;;;;;72.40;37.80;;;;;;;-0.90;100.00;99743.81;105832;1291;66275;-74
2022/12/03 00:48:32;;;;;;;68.00;37.70;;;;;;;-0.87;100.00;99750.59;105840;1284;58875;-73
2022/12/03 00:50:57;;;;;;;61.60;35.30;;;;;;;-0.87;100.00;99753.04;105112;1292;1002748;-72
2022/12/03 00:53:24;;;;;;;75.30;39.30;;;;;;;-0.88;100.00;99754.09;105834;1284;58963;-74
2022/12/03 00:55:50;;;;;;;69.90;39.70;;;;;;;-0.89;100.00;99753.23;105848;1290;59031;-74
2022/12/03 00:58:16;;;;;;;70.60;39.50;;;;;;;-0.90;100.00;99758.80;105858;1289;58965;-73
2022/12/03 01:00:43;;;;;;;68.80;37.30;;;;;;;-0.91;100.00;99757.42;105847;1287;58970;-74
2022/12/03 01:03:09;;;;;;;63.70;35.70;;;;;;;-0.92;100.00;99753.25;105848;1283;58897;-73
2022/12/03 01:05:35;;;;;;;67.80;38.00;;;;;;;-0.91;100.00;99753.95;105853;1290;58908;-74
2022/12/03 01:08:01;;;;;;;68.00;37.30;;;;;;;-0.92;100.00;99748.73;105849;1290;58938;-73
2022/12/03 01:10:27;;;;;;;71.10;37.60;;;;;;;-0.91;100.00;99749.23;105872;1290;58839;-73
2022/12/03 01:12:53;;;;;;;67.30;37.90;;;;;;;-0.91;100.00;99744.52;105893;1287;59343;-74
2022/12/03 01:15:19;;;;;;;66.60;36.40;;;;;;;-0.92;100.00;99741.05;105832;1282;59283;-73
2022/12/03 01:17:45;;;;;;;67.90;37.30;;;;;;;-0.93;100.00;99734.59;105858;1291;59008;-73
2022/12/03 01:20:11;;;;;;;71.60;38.70;;;;;;;-0.94;100.00;99731.29;105868;1289;59082;-73
2022/12/03 01:22:38;;;;;;;65.90;36.30;;;;;;;-0.96;100.00;99727.46;105851;1284;59080;-73
2022/12/03 01:25:04;;;;;;;72.80;40.80;;;;;;;-0.97;100.00;99727.83;105876;1284;58988;-74
2022/12/03 01:27:30;;;;;;;71.80;40.40;;;;;;;-0.98;100.00;99729.41;105858;1294;58965;-74
2022/12/03 01:29:56;;;;;;;68.50;38.10;;;;;;;-1.00;100.00;99727.86;105879;1290;58983;-73
2022/12/03 01:32:22;;;;;;;62.60;36.80;;;;;;;-0.99;100.00;99728.02;105831;1290;58918;-74
2022/12/03 01:34:50;;;;;;;71.40;36.70;;;;;;;-0.97;100.00;99734.64;105881;1284;59043;-74
2022/12/03 01:37:21;;;;;;;67.50;37.40;;;;;;;-0.96;100.00;99739.86;105036;1292;1002893;-74
2022/12/03 01:39:47;;;;;;;70.60;38.50;;;;;;;-0.96;100.00;99740.20;105859;1290;58891;-74
2022/12/03 01:42:20;;;;;;;69.30;38.50;;;;;;;-0.93;100.00;99741.40;105866;1290;58844;-73
2022/12/03 01:44:52;;;;;;;70.40;38.40;;;;;;;-0.91;100.00;99738.95;105842;1289;64738;-73
2022/12/03 01:47:21;;;;;;;69.90;37.40;;;;;;;-0.91;100.00;99744.52;105876;1275;61320;-73
2022/12/03 01:49:51;;;;;;;70.50;38.50;;;;;;;-0.89;100.00;99742.41;105858;1282;64550;-74
2022/12/03 01:52:20;;;;;;;77.00;38.50;;;;;;;-0.89;100.00;99738.58;105845;1290;58972;-72
2022/12/03 01:54:51;;;;;;;69.50;38.00;;;;;;;-0.89;100.00;99731.95;105867;1291;58830;-73
2022/12/03 01:57:25;;;;;;;62.20;35.00;;;;;;;-0.90;100.00;99728.45;105616;1296;67028;-72
2022/12/03 01:59:52;;;;;;;64.90;37.90;;;;;;;-0.92;100.00;99725.69;105775;1291;60147;-73
2022/12/03 02:02:30;;;;;;;68.00;37.40;;;;;;;-0.94;100.00;99725.52;105707;1290;73201;-73
2022/12/03 02:04:59;;;;;;;64.30;36.30;;;;;;;-0.96;100.00;99731.48;105770;1292;59221;-73
2022/12/03 02:07:27;;;;;;;68.50;36.80;;;;;;;-0.95;100.00;99736.36;105876;1290;58946;-74
2022/12/03 02:09:56;;;;;;;65.10;36.40;;;;;;;-0.94;100.00;99735.14;105848;1290;67042;-74
2022/12/03 02:12:29;;;;;;;65.40;37.00;;;;;;;-0.94;100.00;99732.34;105560;1298;61065;-73
2022/12/03 02:14:55;;;;;;;67.20;36.10;;;;;;;-0.94;100.00;99726.05;105707;1292;65052;-73
2022/12/03 02:17:21;;;;;;;62.70;35.20;;;;;;;-0.94;100.00;99728.34;105861;1290;58923;-73
2022/12/03 02:19:50;;;;;;;66.20;37.10;;;;;;;-0.93;100.00;99739.48;105855;1291;60234;-73
2022/12/03 02:22:19;;;;;;;63.50;36.10;;;;;;;-0.93;100.00;99744.71;105854;1290;67013;-74
2022/12/03 02:24:55;;;;;;;72.40;36.60;;;;;;;-0.92;100.00;99746.29;105889;1291;60327;-73
2022/12/03 02:27:22;;;;;;;61.60;34.60;;;;;;;-0.93;100.00;99744.18;105536;1295;62507;-73
2022/12/03 02:29:48;;;;;;;65.70;33.20;;;;;;;-0.92;100.00;99744.18;105824;1289;59122;-73
2022/12/03 02:32:13;;;;;;;65.20;36.30;;;;;;;-0.93;100.00;99741.73;105635;1294;59072;-74
2022/12/03 02:34:44;;;;;;;66.10;36.70;;;;;;;-0.93;100.00;99732.16;105826;1289;59080;-72
2022/12/03 02:37:14;;;;;;;72.40;36.40;;;;;;;-0.92;100.00;99725.34;105714;1292;67395;-72
2022/12/03 02:39:44;;;;;;;;;;;;;;;-0.92;100.00;99723.27;105696;1293;73778;-74
2022/12/03 02:44:58;;;;;;;65.40;34.20;;;;;;;-0.95;100.00;99723.63;105864;1296;58929;-73
2022/12/03 02:47:24;;;;;;;63.50;34.60;;;;;;;-0.95;100.00;99727.64;105850;1282;67363;-74
2022/12/03 02:49:51;;;;;;;61.10;36.60;;;;;;;-0.97;100.00;99738.98;105874;1290;59001;-74
2022/12/03 02:52:17;;;;;;;69.10;38.80;;;;;;;-0.96;100.00;99737.92;105846;1281;59079;-73
2022/12/03 02:54:43;;;;;;;71.60;35.80;;;;;;;-0.94;100.00;99737.58;105859;1289;58917;-73
2022/12/03 02:57:10;;;;;;;66.70;36.60;;;;;;;-0.94;100.00;99731.29;105836;1285;58919;-73
2022/12/03 02:59:36;;;;;;;66.90;36.70;;;;;;;-0.92;100.00;99732.86;105855;1288;59078;-73
2022/12/03 03:02:02;;;;;;;69.10;38.40;;;;;;;-0.91;100.00;99740.51;105598;1292;58907;-73
2022/12/03 03:04:29;;;;;;;66.70;36.40;;;;;;;-0.90;100.00;99738.23;105581;1287;59062;-74
2022/12/03 03:06:55;;;;;;;66.60;34.00;;;;;;;-0.91;100.00;99736.50;105833;1286;58813;-74
2022/12/03 03:09:21;;;;;;;66.60;33.60;;;;;;;-0.92;100.00;99738.42;105847;1299;58800;-73
2022/12/03 03:11:47;;;;;;;69.10;35.40;;;;;;;-0.92;100.00;99741.56;105870;1283;58985;-72
2022/12/03 03:14:14;;;;;;;67.20;34.40;;;;;;;-0.92;100.00;99739.13;105879;1290;59015;-73
2022/12/03 03:16:40;;;;;;;64.40;33.00;;;;;;;-0.93;100.00;99740.18;105874;1291;58905;-73
2022/12/03 03:19:06;;;;;;;71.80;34.10;;;;;;;-0.94;100.00;99742.28;105865;1284;59010;-74
2022/12/03 03:21:33;;;;;;;69.00;36.10;;;;;;;-0.94;100.00;99742.81;105777;1287;58870;-73
2022/12/03 03:23:59;;;;;;;64.40;35.20;;;;;;;-0.93;100.00;99740.52;105871;1290;58962;-73
2022/12/03 03:26:26;;;;;;;64.70;34.00;;;;;;;-0.92;100.00;99740.17;105869;1291;59020;-73
2022/12/03 03:28:52;;;;;;;68.40;35.80;;;;;;;-0.91;100.00;99739.46;105849;1283;59037;-73
2022/12/03 03:31:22;;;;;;;70.50;35.00;;;;;;;-0.90;100.00;99737.02;105580;1283;59106;-73
2022/12/03 03:33:49;;;;;;;73.40;33.60;;;;;;;-0.90;100.00;99734.91;105876;1289;59077;-74
2022/12/03 03:36:15;;;;;;;69.80;36.50;;;;;;;-0.89;100.00;99734.73;105842;1290;64792;-73
2022/12/03 03:38:41;;;;;;;68.70;34.90;;;;;;;-0.89;100.00;99732.63;105852;1285;61002;-74
2022/12/03 03:41:11;;;;;;;63.90;33.60;;;;;;;-0.90;100.00;99734.03;105839;1284;59158;-74
2022/12/03 03:43:38;;;;;;;73.30;35.30;;;;;;;-0.91;100.00;99729.01;105850;1297;59110;-74
2022/12/03 03:46:06;;;;;;;73.80;36.20;;;;;;;-0.92;100.00;99730.05;105873;1297;58898;-74
2022/12/03 03:48:33;;;;;;;71.10;35.90;;;;;;;-0.92;100.00;99733.02;105704;1286;65898;-74
2022/12/03 03:51:08;;;;;;;74.10;36.90;;;;;;;-0.89;100.00;99730.36;105859;1283;68953;-74
2022/12/03 03:53:41;;;;;;;69.30;34.50;;;;;;;-0.88;100.00;99723.74;105584;1295;64955;-72
2022/12/03 03:56:08;;;;;;;77.90;37.10;;;;;;;-0.87;100.00;99726.17;105846;1298;58962;-73
2022/12/03 03:58:35;;;;;;;73.30;35.20;;;;;;;-0.88;100.00;99727.57;105700;1293;58947;-73
2022/12/03 04:01:01;;;;;;;74.00;37.10;;;;;;;-0.90;100.00;99727.95;105856;1290;75857;-73
2022/12/03 04:03:27;;;;;;;74.20;36.20;;;;;;;-0.90;100.00;99728.45;105855;1290;58932;-73
2022/12/03 04:05:54;;;;;;;74.30;36.90;;;;;;;-0.89;100.00;99728.63;105734;1292;59028;-73
2022/12/03 04:08:21;;;;;;;73.80;36.00;;;;;;;-0.87;100.00;99729.66;105791;1283;58981;-72
2022/12/03 04:13:31;;;;;;;74.10;37.50;;;;;;;-0.86;100.00;99739.09;105859;1283;66083;-73
2022/12/03 04:15:57;;;;;;;72.70;33.50;;;;;;;-0.86;100.00;99739.08;105857;1290;59337;-73
2022/12/03 04:18:41;;;;;;;78.50;36.70;;;;;;;-0.85;100.00;99744.99;105875;1283;58900;-73
2022/12/03 04:23:59;;;;;;;72.40;35.90;;;;;;;-0.82;100.00;99743.23;105873;1290;58948;-74
2022/12/03 04:29:10;;;;;;;77.80;34.70;;;;;;;-0.80;100.00;99731.00;105841;1289;69773;-73
2022/12/03 04:37:07;;;;;;;79.60;37.40;;;;;;;-0.82;100.00;99733.10;105845;1290;59523;-73
2022/12/03 04:39:35;;;;;;;72.10;35.80;;;;;;;-0.82;100.00;99739.38;105838;1290;73873;-73
2022/12/03 04:42:01;;;;;;;75.10;36.50;;;;;;;-0.82;100.00;99735.73;105716;1293;67636;-73
2022/12/03 04:44:36;;;;;;;77.50;38.20;;;;;;;-0.80;100.00;99733.96;105798;1278;58966;-73
2022/12/03 04:47:13;;;;;;;76.40;35.70;;;;;;;-0.80;100.00;99740.77;105836;1290;58956;-74
2022/12/03 04:49:45;;;;;;;71.10;35.80;;;;;;;-0.80;100.00;99741.81;105884;1290;59124;-74
2022/12/03 04:52:14;;;;;;;75.10;38.40;;;;;;;-0.81;100.00;99738.68;105848;1277;75747;-74
2022/12/03 04:54:41;;;;;;;77.90;36.50;;;;;;;-0.79;100.00;99734.83;105854;1290;61220;-74
2022/12/03 04:57:08;;;;;;;73.60;36.70;;;;;;;-0.79;100.00;99737.27;105842;1282;65100;-73
2022/12/03 04:59:35;;;;;;;74.80;37.00;;;;;;;-0.79;100.00;99739.54;105677;1285;58859;-73
2022/12/03 05:02:04;;;;;;;74.90;38.70;;;;;;;-0.79;100.00;99740.05;105844;1282;60280;-73
2022/12/03 05:04:30;;;;;;;74.50;37.60;;;;;;;-0.78;100.00;99736.02;105883;1283;75946;-73
2022/12/03 05:06:56;;;;;;;76.30;37.60;;;;;;;-0.77;100.00;99730.97;105856;1290;59000;-73
2022/12/03 05:09:22;;;;;;;76.10;38.80;;;;;;;-0.76;100.00;99734.45;105841;1290;58955;-74
2022/12/03 05:11:48;;;;;;;80.00;38.00;;;;;;;-0.78;100.00;99730.80;105861;1283;58896;-73
2022/12/03 05:14:14;;;;;;;80.60;36.70;;;;;;;-0.80;100.00;99730.30;105857;1290;58919;-74
2022/12/03 05:16:40;;;;;;;74.00;35.70;;;;;;;-0.83;100.00;99730.33;105840;1290;59105;-73
2022/12/03 05:19:06;;;;;;;68.70;32.70;;;;;;;-0.87;100.00;99732.63;105874;1284;58934;-73
2022/12/03 05:21:33;;;;;;;80.40;36.40;;;;;;;-0.89;100.00;99727.77;105819;1290;59842;-73
2022/12/03 05:23:59;;;;;;;74.90;36.30;;;;;;;-0.90;100.00;99727.58;105833;1287;58975;-73
2022/12/03 05:26:25;;;;;;;75.90;38.00;;;;;;;-0.90;100.00;99733.35;105881;1290;59046;-73
2022/12/03 05:28:51;;;;;;;77.20;35.80;;;;;;;-0.86;100.00;99736.27;105867;1284;59043;-73
2022/12/03 05:31:18;;;;;;;85.90;39.00;;;;;;;-0.84;100.00;99733.82;105882;1284;58941;-73
2022/12/03 05:33:43;;;;;;;78.10;38.10;;;;;;;-0.84;100.00;99732.26;105837;1290;59996;-73
2022/12/03 05:36:10;;;;;;;75.10;35.40;;;;;;;-0.84;100.00;99738.36;105842;1283;58863;-74
2022/12/03 05:38:37;;;;;;;69.30;32.70;;;;;;;-0.84;100.00;99737.31;105833;1284;58942;-74
2022/12/03 05:42:52;;;;;;;81.50;38.10;;;;;;;-0.86;100.00;99738.73;105859;1290;59357;-73
2022/12/03 05:43:49;;;;;;;80.50;43.30;;;;;;;-0.87;100.00;99739.42;105686;1290;73975;-73
2022/12/03 05:46:15;;;;;;;82.90;41.00;;;;;;;-0.88;100.00;99738.73;105870;1290;58966;-74
2022/12/03 05:48:41;;;;;;;89.30;43.60;;;;;;;-0.88;100.00;99734.03;105853;1290;58899;-74
2022/12/03 05:51:07;;;;;;;85.80;46.00;;;;;;;-0.88;100.00;99733.68;105844;1283;58951;-73
2022/12/03 05:53:33;;;;;;;81.20;42.60;;;;;;;-0.91;100.00;99728.64;105884;1297;59014;-72
2022/12/03 05:55:59;;;;;;;87.10;54.80;;;;;;;-0.94;100.00;99724.48;105827;1290;58933;-74
2022/12/03 05:58:25;;;;;;;83.00;41.00;;;;;;;-0.95;100.00;99727.29;105844;1290;58969;-74
2022/12/03 06:00:51;;;;;;;84.80;41.00;;;;;;;-0.97;100.00;99729.40;105890;1284;59284;-74
2022/12/03 06:03:17;;;;;;;84.20;39.00;;;;;;;-0.97;100.00;99732.37;105861;1290;69899;-74
2022/12/03 06:05:44;;;;;;;79.10;38.70;;;;;;;-0.96;100.00;99734.63;105836;1290;65015;-74
2022/12/03 06:08:10;;;;;;;76.50;38.80;;;;;;;-0.97;100.00;99737.42;105869;1283;58915;-74
2022/12/03 06:10:36;;;;;;;79.10;35.90;;;;;;;-0.97;100.00;99736.90;105864;1291;59020;-74
2022/12/03 06:13:02;;;;;;;83.90;40.40;;;;;;;-0.96;100.00;99738.80;105855;1291;59018;-73
2022/12/03 06:15:28;;;;;;;97.20;47.60;;;;;;;-0.94;100.00;99735.83;105863;1291;59052;-73
2022/12/03 06:17:54;;;;;;;92.30;46.20;;;;;;;-0.92;100.00;99736.16;105868;1291;58866;-73
2022/12/03 06:20:20;;;;;;;97.80;47.10;;;;;;;-0.92;100.00;99734.06;105633;1293;59016;-73
2022/12/03 06:22:46;;;;;;;96.60;46.30;;;;;;;-0.91;100.00;99731.96;105864;1283;58904;-73
2022/12/03 06:25:13;;;;;;;86.60;41.30;;;;;;;-0.89;100.00;99731.25;105894;1290;58877;-73
2022/12/03 06:27:39;;;;;;;90.00;41.60;;;;;;;-0.88;100.00;99735.41;105882;1277;59222;-73
2022/12/03 06:30:07;;;;;;;94.00;45.20;;;;;;;-0.87;100.00;99740.29;105875;1287;59345;-74
2022/12/03 06:32:34;;;;;;;80.00;43.30;;;;;;;-0.84;100.00;99742.55;105857;1290;58810;-73
2022/12/03 06:35:00;;;;;;;81.40;41.40;;;;;;;-0.83;100.00;99744.80;105833;1284;66043;-73
2022/12/03 06:37:26;;;;;;;78.50;37.70;;;;;;;-0.85;100.00;99752.16;105863;1290;58848;-74
2022/12/03 06:39:52;;;;;;;83.90;37.70;;;;;;;-0.91;100.00;99757.60;105682;1288;59020;-73
2022/12/03 06:42:18;;;;;;;84.50;37.10;;;;;;;-1.00;100.00;99758.37;105853;1290;58964;-74
2022/12/03 06:44:44;;;;;;;89.80;38.90;;;;;;;-1.08;100.00;99758.25;105860;1289;59236;-74
2022/12/03 06:47:10;;;;;;;94.00;41.60;;;;;;;-1.10;100.00;99760.71;105614;1288;59632;-74
2022/12/03 06:49:36;;;;;;;87.10;38.40;;;;;;;-1.08;100.00;99764.02;105858;1290;58972;-74
2022/12/03 06:52:03;;;;;;;101.50;42.50;;;;;;;-1.06;100.00;99769.05;105865;1282;58987;-74
2022/12/03 06:54:31;;;;;;;100.40;41.30;;;;;;;-1.07;100.00;99767.48;105832;1290;58960;-73
2022/12/03 06:56:56;;;;;;;96.20;41.10;;;;;;;-1.08;100.00;99762.96;105852;1290;58938;-73
2022/12/03 06:59:23;;;;;;;89.10;41.10;;;;;;;-1.08;100.00;99759.48;105856;1290;58934;-72
2022/12/03 07:01:50;;;;;;;97.30;42.00;;;;;;;-1.05;100.00;99762.25;105860;1290;58824;-73
2022/12/03 07:04:16;;;;;;;87.70;37.50;;;;;;;-1.02;100.00;99764.66;105852;1282;59001;-74
2022/12/03 07:06:42;;;;;;;94.50;41.70;;;;;;;-0.98;100.00;99768.30;105868;1290;58960;-73
2022/12/03 07:09:10;;;;;;;98.70;48.20;;;;;;;-0.94;100.00;99768.09;105865;1284;59015;-73
2022/12/03 07:11:39;;;;;;;115.50;54.00;;;;;;;-0.91;100.00;99770.34;105888;1289;59010;-73
2022/12/03 07:14:07;;;;;;;101.50;48.70;;;;;;;-0.92;100.00;99770.52;105853;1289;58982;-73
2022/12/03 07:16:34;;;;;;;101.60;44.20;;;;;;;-0.93;100.00;99773.66;105838;1290;65132;-73
2022/12/03 07:19:01;;;;;;;86.10;38.60;;;;;;;-0.91;100.00;99772.08;105869;1290;58913;-73
2022/12/03 07:21:28;;;;;;;105.70;44.30;;;;;;;-0.92;100.00;99769.30;105885;1290;58948;-73
2022/12/03 07:23:54;;;;;;;96.10;40.90;;;;;;;-0.94;100.00;99768.80;105864;1290;67170;-73
2022/12/03 07:26:20;;;;;;;105.90;42.00;;;;;;;-0.97;100.00;99768.64;105834;1290;58986;-74
2022/12/03 07:28:47;;;;;;;98.00;42.60;;;;;;;-0.98;100.00;99770.73;105862;1293;58933;-74
2022/12/03 07:31:14;;;;;;;110.90;46.80;;;;;;;-0.98;100.00;99769.17;105835;1290;58916;-73
2022/12/03 07:33:40;;;;;;;88.80;39.60;;;;;;;-0.97;100.00;99768.64;105680;1292;58828;-73
2022/12/03 07:36:06;;;;;;;94.90;39.80;;;;;;;-0.98;100.00;99766.21;105856;1290;58987;-73
2022/12/03 07:38:32;;;;;;;107.10;49.90;;;;;;;-0.98;100.00;99762.72;105842;1291;59209;-73
2022/12/03 07:40:58;;;;;;;89.60;44.80;;;;;;;-0.97;100.00;99760.63;105895;1291;58970;-73
2022/12/03 07:43:24;;;;;;;97.80;47.20;;;;;;;-0.93;100.00;99760.94;105832;1290;59075;-73
2022/12/03 07:45:50;;;;;;;107.10;51.60;;;;;;;-0.88;100.00;99757.75;105852;1290;58968;-74
2022/12/03 07:48:16;;;;;;;95.90;47.70;;;;;;;-0.84;100.00;99757.38;105862;1290;59283;-74
2022/12/03 07:50:42;;;;;;;99.80;49.20;;;;;;;-0.81;100.00;99754.91;105873;1291;58836;-73
2022/12/03 07:53:08;;;;;;;89.90;41.00;;;;;;;-0.77;100.00;99754.34;105880;1283;59256;-72
2022/12/03 07:55:34;;;;;;;93.00;40.30;;;;;;;-0.76;100.00;99754.52;105857;1290;59006;-73
2022/12/03 07:58:01;;;;;;;93.30;43.60;;;;;;;-0.76;100.00;99755.91;105672;1287;64612;-73
2022/12/03 08:00:29;;;;;;;91.90;43.70;;;;;;;-0.74;100.00;99759.73;105847;1283;58913;-74
2022/12/03 08:02:54;;;;;;;99.60;45.00;;;;;;;-0.71;100.00;99761.96;105844;1290;64085;-73
2022/12/03 08:05:20;;;;;;;98.70;43.30;;;;;;;-0.67;100.00;99762.64;105856;1282;58957;-72
2022/12/03 08:07:48;;;;;;;145.90;67.60;;;;;;;-0.64;100.00;99767.84;105840;1289;58985;-72
2022/12/03 08:10:14;;;;;;;154.90;69.80;;;;;;;-0.61;100.00;99766.23;105846;1297;73621;-73
2022/12/03 08:12:40;;;;;;;142.50;69.70;;;;;;;-0.58;100.00;99763.60;105832;1283;59241;-73
2022/12/03 08:15:11;;;;;;;111.10;57.10;;;;;;;-0.53;100.00;99762.16;105855;1291;58921;-74
2022/12/03 08:17:41;;;;;;;123.10;62.80;;;;;;;-0.47;100.00;99759.29;105686;1285;59015;-74
2022/12/03 08:20:09;;;;;;;;;;;;;;;-0.43;100.00;99755.42;105849;1289;59236;-74
2022/12/03 08:22:36;;;;;;;87.90;38.90;;;;;;;-0.48;100.00;99758.27;105827;1290;67287;-73
2022/12/03 08:25:05;;;;;;;97.90;49.40;;;;;;;-0.55;100.00;99756.77;105632;1293;58937;-73
2022/12/03 08:27:32;;;;;;;88.70;39.70;;;;;;;-0.57;100.00;99759.75;105807;1290;63840;-73
2022/12/03 08:30:03;;;;;;;90.40;39.10;;;;;;;-0.58;100.00;99768.32;105822;1282;59253;-74
2022/12/03 08:32:30;;;;;;;87.50;39.50;;;;;;;-0.61;100.00;99758.91;105591;1286;59463;-73
2022/12/03 08:34:56;;;;;;;88.00;39.60;;;;;;;-0.63;100.00;99762.77;105601;1296;67198;-73
2022/12/03 08:37:22;;;;;;;1327.30;638.40;;;;;;;-0.66;100.00;99764.02;105606;1302;59184;-72
2022/12/03 08:39:53;;;;;;;108.90;54.00;;;;;;;-0.70;100.00;99763.19;105556;1294;59169;-73
2022/12/03 08:42:41;;;;;;;118.00;55.90;;;;;;;-0.70;100.00;99765.97;105577;1293;58954;-73
2022/12/03 08:45:38;;;;;;;87.30;41.90;;;;;;;-0.68;100.00;99761.60;105573;1294;58846;-72
2022/12/03 08:48:28;;;;;;;99.60;45.90;;;;;;;-0.64;100.00;99763.83;105603;1293;65826;-73
2022/12/03 08:50:56;;;;;;;100.70;49.00;;;;;;;-0.57;100.00;99770.05;105597;1295;60906;-75
2022/12/03 08:53:35;;;;;;;85.00;45.00;;;;;;;-0.48;100.00;99769.61;105594;1294;72539;-73
2022/12/03 08:56:18;;;;;;;94.00;44.40;;;;;;;-0.37;100.00;99770.73;105582;1295;58870;-73
2022/12/03 08:58:47;;;;;;;107.50;40.00;;;;;;;-0.29;100.00;99767.33;105579;1294;58957;-75
2022/12/03 09:01:36;;;;;;;84.70;38.50;;;;;;;-0.25;100.00;99768.85;105589;1294;67280;-74
2022/12/03 09:04:25;;;;;;;92.60;39.30;;;;;;;-0.22;100.00;99772.83;105675;1286;61707;-72
2022/12/03 09:06:52;;;;;;;87.40;40.10;;;;;;;-0.20;100.00;99775.27;105646;1293;65269;-74
2022/12/03 09:09:21;;;;;;;92.50;40.10;;;;;;;-0.22;100.00;99771.95;105813;1285;58977;-74
2022/12/03 09:11:48;;;;;;;91.50;41.00;;;;;;;-0.20;100.00;99770.02;105838;1296;58862;-73
2022/12/03 09:14:16;;;;;;;88.90;39.30;;;;;;;-0.18;100.00;99768.45;105862;1290;65762;-73
2022/12/03 09:16:42;;;;;;;92.80;41.00;;;;;;;-0.15;100.00;99771.55;105669;1286;60086;-76
2022/12/03 09:19:08;;;;;;;87.60;42.00;;;;;;;-0.10;100.00;99772.35;105783;1292;58963;-74
2022/12/03 09:21:34;;;;;;;85.20;40.30;;;;;;;-0.08;100.00;99767.09;105830;1290;59038;-73
2022/12/03 09:24:01;;;;;;;77.30;36.90;;;;;;;-0.09;100.00;99770.43;105864;1290;58947;-73
2022/12/03 09:26:28;;;;;;;84.00;38.80;;;;;;;-0.15;100.00;99773.80;105843;1290;58972;-73
2022/12/03 09:28:54;;;;;;;84.00;38.30;;;;;;;-0.17;100.00;99773.83;105863;1291;59011;-73
2022/12/03 09:31:21;;;;;;;90.60;39.30;;;;;;;-0.22;100.00;99774.41;105849;1287;58910;-74
2022/12/03 09:33:47;;;;;;;91.40;38.80;;;;;;;-0.25;100.00;99774.44;105850;1296;59132;-74
2022/12/03 09:36:13;;;;;;;88.70;39.90;;;;;;;-0.28;100.00;99772.02;105853;1284;58899;-74
2022/12/03 09:38:41;;;;;;;96.80;42.00;;;;;;;-0.29;100.00;99770.98;105836;1290;59005;-74
2022/12/03 09:41:08;;;;;;;87.90;42.40;;;;;;;-0.27;100.00;99771.48;105871;1291;58848;-74
2022/12/03 09:43:34;;;;;;;95.40;40.80;;;;;;;-0.24;100.00;99777.05;105580;1287;59214;-75
2022/12/03 09:46:01;;;;;;;83.20;38.20;;;;;;;-0.23;100.00;99775.64;105702;1292;59180;-73
2022/12/03 09:48:27;;;;;;;97.70;41.60;;;;;;;-0.24;100.00;99773.90;105832;1290;58960;-74
2022/12/03 09:50:53;;;;;;;88.10;40.50;;;;;;;-0.23;100.00;99772.15;104393;1290;1002344;-74
2022/12/03 09:53:24;;;;;;;93.70;43.20;;;;;;;-0.18;100.00;99772.09;105904;1290;59563;-73
2022/12/03 09:55:51;;;;;;;94.80;43.70;;;;;;;-0.14;100.00;99771.86;105848;1290;65030;-74
2022/12/03 09:58:17;;;;;;;84.30;41.40;;;;;;;-0.16;100.00;99772.77;105782;1298;59037;-74
2022/12/03 10:00:49;;;;;;;88.40;41.30;;;;;;;-0.16;100.00;99767.36;105853;1291;61602;-74
2022/12/03 10:03:18;;;;;;;99.00;42.90;;;;;;;-0.15;100.00;99764.36;105881;1283;67070;-73
2022/12/03 10:05:44;;;;;;;101.60;44.80;;;;;;;-0.09;100.00;99760.29;105847;1287;60163;-73
2022/12/03 10:08:16;;;;;;;91.20;40.00;;;;;;;-0.06;100.00;99757.46;105847;1290;63836;-74
2022/12/03 10:10:43;;;;;;;96.70;42.70;;;;;;;-0.09;100.00;99761.86;105783;1292;58845;-73
2022/12/03 10:13:15;;;;;;;97.80;41.60;;;;;;;-0.06;100.00;99766.73;105878;1287;58814;-74
2022/12/03 10:15:41;;;;;;;88.30;38.50;;;;;;;-0.06;100.00;99765.14;105878;1291;64685;-74
2022/12/03 10:18:20;;;;;;;90.50;42.00;;;;;;;-0.08;100.00;99762.73;105874;1285;59327;-74
2022/12/03 10:20:48;;;;;;;100.20;41.10;;;;;;;-0.11;100.00;99751.23;105862;1297;65295;-73
2022/12/03 10:23:28;;;;;;;90.50;38.30;;;;;;;-0.09;100.00;99745.27;105850;1285;58872;-74
2022/12/03 10:26:01;;;;;;;98.40;44.10;;;;;;;-0.07;100.00;99745.95;105846;1289;61360;-74
2022/12/03 10:28:30;;;;;;;82.60;39.20;;;;;;;-0.06;100.00;99744.02;105888;1290;67108;-73
2022/12/03 10:30:57;;;;;;;85.40;39.70;;;;;;;-0.04;100.00;99744.00;105870;1291;67701;-73
2022/12/03 10:33:36;;;;;;;85.00;40.60;;;;;;;0.05;100.00;99742.48;105871;1290;64206;-73
2022/12/03 10:36:13;;;;;;;94.90;44.40;;;;;;;0.17;100.00;99744.79;105872;1290;58943;-74
2022/12/03 10:38:38;;;;;;;96.20;45.30;;;;;;;0.25;100.00;99744.52;105870;1289;58773;-74
2022/12/03 10:41:26;;;;;;;92.50;44.80;;;;;;;0.29;100.00;99745.51;105856;1291;59397;-74
2022/12/03 10:43:52;;;;;;;89.50;42.80;;;;;;;0.33;100.00;99741.08;105693;1294;59745;-74
2022/12/03 10:46:20;;;;;;;99.70;48.70;;;;;;;0.37;100.00;99733.16;105742;1291;140619;-74
2022/12/03 10:49:13;;;;;;;93.10;46.20;;;;;;;0.48;100.00;99728.11;105863;1290;59290;-73
2022/12/03 10:51:39;;;;;;;99.30;47.40;;;;;;;0.54;100.00;99729.25;105885;1284;58837;-74
2022/12/03 10:54:15;;;;;;;82.40;42.50;;;;;;;0.56;100.00;99729.92;105849;1289;66675;-74
2022/12/03 10:56:41;;;;;;;85.90;48.00;;;;;;;0.52;100.00;99734.88;105856;1290;61318;-74
2022/12/03 10:59:13;;;;;;;95.80;47.80;;;;;;;0.52;100.00;99735.22;105859;1289;60624;-74
2022/12/03 11:01:39;;;;;;;85.40;43.50;;;;;;;0.56;100.00;99736.91;105844;1289;59110;-74
2022/12/03 11:04:17;;;;;;;76.10;43.70;;;;;;;0.52;100.00;99732.61;105865;1284;58843;-75
2022/12/03 11:06:43;;;;;;;81.80;43.80;;;;;;;0.51;100.00;99729.65;105861;1291;73800;-74
2022/12/03 11:09:19;;;;;;;93.00;51.20;;;;;;;0.51;100.00;99730.34;105654;1281;58949;-74
2022/12/03 11:11:48;;;;;;;96.70;52.00;;;;;;;0.55;100.00;99727.65;105860;1284;63966;-74
2022/12/03 11:14:53;;;;;;;93.60;49.40;;;;;;;0.59;100.00;99726.20;105854;1291;59258;-74
2022/12/03 11:17:44;;;;;;;96.30;51.50;;;;;;;0.63;100.00;99721.77;105856;1292;58844;-74
2022/12/03 11:20:35;;;;;;;98.70;45.50;;;;;;;0.63;100.00;99722.81;105843;1289;64737;-75
2022/12/03 11:23:00;;;;;;;91.30;45.30;;;;;;;0.61;100.00;99723.38;105468;1299;61076;-73
2022/12/03 11:25:27;;;;;;;82.80;39.10;;;;;;;0.59;100.00;99725.49;105461;1299;59117;-72